Le Boreal — FLSY — position and weather

sailwx.info

Track history (hours):
 
Tides and Currents Weather Stations Pressure Air Temp Water Temp Dewpoint Dewpoint Depression Visibility Wind Speed Wind Dir Waves Ship Positions

Le Boreal

Last reported at 2017-Aug-06 01:32 UTC. Time now 2017-Aug-17 01:54 UTC.
Position N 64°57' W 053°03'.
Warning: this ship's position is 11 days out of date.

Length 140 m; draft 5.2 m.

Type: Passenger vessel. MMSI: 578000500.

Date/timePositionNaut miles runAvg speedWind from/ knotsBaromVisibWave heightAir tempDewpointWater temp
2017-Aug-06 01:32N 64°57' W 053°03'014.8
2017-Aug-06 01:30N 64°56' W 053°02'815.2
2017-Aug-06 01:00N 64°49' W 052°57'815.2
2017-Aug-06 00:30N 64°42' W 052°51'815.5
2017-Aug-06 00:00N 64°35' W 052°46'815.1
2017-Aug-05 23:31N 64°27' W 052°41'815.1
2017-Aug-05 23:00N 64°20' W 052°35'815.1
2017-Aug-05 22:30N 64°13' W 052°30'714.8
2017-Aug-05 22:00N 64°06' W 052°24'714.4
2017-Aug-05 21:30N 64°04' W 052°08'815.1
2017-Aug-05 21:00N 64°07' W 051°53'510.6
2017-Aug-05 20:30N 64°10' W 051°43'0 0.0
2017-Aug-05 20:00N 64°10' W 051°43'0 0.0
2017-Aug-05 19:30N 64°10' W 051°43'0 0.0
2017-Aug-05 19:00N 64°10' W 051°43'0 0.0
2017-Aug-05 18:30N 64°10' W 051°43'0 0.0
2017-Aug-05 18:00N 64°10' W 051°43'0 0.0
2017-Aug-05 17:30N 64°10' W 051°43'0 0.0
2017-Aug-05 17:00N 64°10' W 051°43'0 0.0
2017-Aug-05 16:30N 64°10' W 051°43'0 0.0
2017-Aug-05 16:00N 64°10' W 051°43'0 0.0
2017-Aug-05 15:30N 64°10' W 051°43'0 0.0
2017-Aug-05 15:00N 64°10' W 051°43'0 0.0
2017-Aug-05 14:30N 64°10' W 051°43'0 0.2
2017-Aug-05 14:00N 64°10' W 051°43'3 5.1
2017-Aug-05 13:31N 64°08' W 051°41'510.7
2017-Aug-05 13:00N 64°03' W 051°38'510.6
2017-Aug-05 12:30N 63°57' W 051°37'611.4
2017-Aug-05 12:00N 63°52' W 051°34'612.7
2017-Aug-05 11:30N 63°46' W 051°36'  
Track history (hours):
 
Tides and Currents Weather Stations Pressure Air Temp Water Temp Dewpoint Dewpoint Depression Visibility Wind Speed Wind Dir Waves Ship Positions

Le Boreal

Last reported at 2017-Aug-06 01:32 UTC. Time now 2017-Aug-17 01:54 UTC.
Position N 64°57' W 053°03'.
Warning: this ship's position is 11 days out of date.

Length 140 m; draft 5.2 m.

Type: Passenger vessel. MMSI: 578000500.

Date/timePositionNaut miles runAvg speedWind from/ knotsBaromVisibWave heightAir tempDewpointWater temp
2017-Aug-06 01:32N 64°57' W 053°03'014.8
2017-Aug-06 01:30N 64°56' W 053°02'815.2
2017-Aug-06 01:00N 64°49' W 052°57'815.2
2017-Aug-06 00:30N 64°42' W 052°51'815.5
2017-Aug-06 00:00N 64°35' W 052°46'815.1
2017-Aug-05 23:31N 64°27' W 052°41'815.1
2017-Aug-05 23:00N 64°20' W 052°35'815.1
2017-Aug-05 22:30N 64°13' W 052°30'714.8
2017-Aug-05 22:00N 64°06' W 052°24'714.4
2017-Aug-05 21:30N 64°04' W 052°08'815.1
2017-Aug-05 21:00N 64°07' W 051°53'510.6
2017-Aug-05 20:30N 64°10' W 051°43'0 0.0
2017-Aug-05 20:00N 64°10' W 051°43'0 0.0
2017-Aug-05 19:30N 64°10' W 051°43'0 0.0
2017-Aug-05 19:00N 64°10' W 051°43'0 0.0
2017-Aug-05 18:30N 64°10' W 051°43'0 0.0
2017-Aug-05 18:00N 64°10' W 051°43'0 0.0
2017-Aug-05 17:30N 64°10' W 051°43'0 0.0
2017-Aug-05 17:00N 64°10' W 051°43'0 0.0
2017-Aug-05 16:30N 64°10' W 051°43'0 0.0
2017-Aug-05 16:00N 64°10' W 051°43'0 0.0
2017-Aug-05 15:30N 64°10' W 051°43'0 0.0
2017-Aug-05 15:00N 64°10' W 051°43'0 0.0
2017-Aug-05 14:30N 64°10' W 051°43'0 0.2
2017-Aug-05 14:00N 64°10' W 051°43'3 5.1
2017-Aug-05 13:31N 64°08' W 051°41'510.7
2017-Aug-05 13:00N 64°03' W 051°38'510.6
2017-Aug-05 12:30N 63°57' W 051°37'611.4
2017-Aug-05 12:00N 63°52' W 051°34'612.7
2017-Aug-05 11:30N 63°46' W 051°36'  

Dump ship's entire track history